Timeline UpdatesTrip UpdatesNews PostsPvt PostsTravel TipsAdmin PostsConv PostsFollowed PostsChat RequestsBlog PostsPNR Posts

Disclaimer
Search
 
 
Sat Aug 23, 2014 18:54:38 ISTHomeTrainsΣChainsAtlasPNRForumGalleryNewsFAQTripsMembersLoginFeedback
No Recent News for this Train
Other Trains in the News **new
Latest...
Will be diverted via Malkhedi-Agasod chord line avoiding Bina station from 25th march 2014
Thu Mar 27, 2014 (03:33PM)
⇐ Return Journey: Train# 18477

18478/Kalinga Utkal Express

Mar 27 2014 (3:32PM)
Change Departure Station:
Change Arrival Station:
Post a Train Travel TipPost a Train Travel Tip **new
Post a Comment/Question/Picture/VideoPost a Comment/Question/Picture/Video
Pantry/Catering
✓ Pantry Car Avbl
✓ Catering Avbl
RSA - Rake Sharing
Rake/Coach Composition
Coach Composition:ENG-SLR-GS-S1-S2-S3-S4-S5-S6-S7-S8-S9-PC-S10-S11-S12-B1-B2-A1-GS-GS-SLR. By DJ 132 blog Entry# 701076
Loco
HW-NZM: LDH WDM-3A NZM-PURI: TKD WAP-7
News    PNR    Forum    Time-Table    Availability    Fare Chart    Map    Arr/Dep History    Trips    Gallery    ΣChains    X/O    Timeline    
Travel Time: 37h 58m    57 halts    Distance: 1850 km    Avg Speed: 48 km/hr
Type: Mail/Express
Zone: ECoR/East Coast
Departs @ 17:02 (Avg 58m late)
Platform# ???
SMTWTFS
Morena/MRA 
Arrives @ 07:00 +2 nights (Avg 9m late)
Platform# 1
SMTWTFS
Puri/PURI 

57 halts. 255 intermediate Stations between Morena and Puri

Show ALL intermediate Stations  Show Old Time-Table

#CodeStation NameX/OArrivesAvgDepartsAvgHaltPFDay#KmSpeedElevZoneAddress
1HWHaridwar Junction (9)  -06:00+321-521.860294mNRHaridwar, Uttarakhand
2RKRoorkee (3)X  06:45+3006:47+322m31-477.126264mNRRoorkee - 247667, Uttarakhand
3TPZTapri Junction (2)  08:02+908:04+142m11-445.069274mNRTapri -Saharanpur, Uttar Pradesh
4DBDDeoband (2)X  08:28+1508:30+162m11-417.341258mNRSaharanpur, Uttar Pradesh
5MOZMuzaffarnagar (3)X  09:05+2209:07+242m11-393.360247mNRMuzaffarNagar, Uttar Pradesh
6MUTMeerut Cantt. (2)  09:58+1610:00+172m11-342.129230mNRMeerut, Uttar Pradesh
7MTCMeerut City Junction (6)  10:09+1610:12+163m21-337.764229mNRMeerut, Uttar Pradesh
8GZBGhaziabad Junction (6)XO  10:56+2510:58+272m31-290.533217mNRGhaziabad, Uttar Pradesh
9NZMDelhi Hazrat Nizamuddin (7)X11:40+3012:05+2925m21-267.166209mNRNew Delhi 110013, Delhi NCT
10FDBFaridabad (4)X  12:24+3212:26+322m31-246.357206mNRold Faridabad, Haryana
11KSVKosi Kalan (3)  13:41+4213:43+462m21-174.678189mNCRKosi Kalan, Uttar Pradesh
12MTJMathura Junction (10)X  14:15+5414:20+555m11-133.151179mNCRMathura, Uttar Pradesh
13RKMRaja Ki Mandi (4)X  15:18+5215:20+522m21-83.58170mNCRAgra, Uttar Pradesh
14AGCAgra Cantt. (6)X  15:50+3615:58+408m41-79.485174mNCRAgra, Uttar Pradesh
15DHODholpur Junction (3)X  16:35+5616:37+572m21-26.870177mNCRDholpur, Rajasthan
16MRA»Morena (3)»X  17:00+5717:02+582m--10.075176mNCRMorena, Madhya Pradesh
17GWLGwalior Junction (4)X  17:33+1:0817:38+1:095m1138.677214mNCRGwalior, Madhya Pradesh
18DBADabra (3)  18:11+1:1718:13+1:182m3180.970 NCRDabra(District-Gwalior), Madhya Pradesh
19DAADatia (2)X  18:39+1:2318:41+1:242m--1111.241264mNCRDatia, Madhya Pradesh
20JHSJhansi Junction (7)X  19:18+1:1319:26+1:198m31136.361259mNCRJhansi, Uttar Pradesh
21BABBabina (3)X  19:51+1:2619:53+1:272m11161.886285mNCRBabina, Uttar Pradesh
22LARLalitpur (3)  20:38+1:3520:40+1:372m11226.642373mNCRLalitpur, Uttar Pradesh
23MAKRMalkheri Junction (2)X  22:10+1:1322:12+1:132m--1289.737421mWCRGuna, Madhya Pradesh
24KYEKhurai (5)  22:40+1:0222:42+1:022m11307.055439mWCRKhurai, Madhya Pradesh
25SGOSaugor (2)  23:40+5523:45+585m11359.858519mWCRMP 470001Madhya pradesh, Madhya Pradesh
26PHAPathariaX  00:38+5500:40+562m12410.736382mWCRState Highway 14, Madhya Pradesh
27DMODamoh (2)X  01:23+4401:25+462m--2436.942365mWCRDamoh, Madhya Pradesh
28KMZKatni Murwara  04:00+1904:10+2310m22546.045385mWCRMP 483504 ?, Madhya Pradesh
29CHDChandia Road (1)  05:03+2005:05+232m12585.860406mSECRNational Highway 78, Madhya Pradesh
30UMRUmaria (3)  05:24+2205:29+225m--2604.880469mSECRUmaria, Madhya Pradesh
31NRZBNowrozabad  05:46+2405:48+242m--2627.454458mSECRNational Highway 78, Madhya Pradesh
32BRSBirsinghpur  05:56+2305:58+222m--2634.743461mSECRPali, Madhya Pradesh
33SDLShahdol  06:50+1206:55+155m--2672.069466mSECR, Madhya Pradesh
34BUHBurhar  07:12+1707:14+172m--2691.558494mSECRBurhar, Madhya Pradesh
35AALAmlai  07:23+1707:25+182m--2700.238495mSECRAnuppur, Madhya Pradesh
36APRAnuppur Junction (3)  07:45+1107:50+145m--2712.983487mSECRAnuppur, Madhya Pradesh
37PNDPendra Road  08:27+3108:32+325m--2764.156620mSECRBilaspur district, Chhattisgarh
38BIGBelgahna  09:30+4009:32+392m--2817.879327mSECRBilaspur, Chhattisgarh
39KGBKargi Road  09:44+4209:46+422m72833.628327mSECRBilaspur, Chhattisgarh
40BSPBilaspur Junction (8)X  10:55+1111:15+1720m12865.668271mSECRBilaspur, Chhattisgarh
41AKTAkaltara (4)  11:39+2311:41+232m--2892.953284mSECRDist. Janjgir Champa, Chhattisgarh
42NIANaila  11:58+1812:00+192m--2907.843273mSECRJanjgir, Chhattisgarh
43CPHChampa Junction (3)  12:15+1612:20+165m--2918.672264mSECRNational Highway 200 (07819-245767), Chhattisgarh
44BUABaradwar  12:33+1812:35+182m--2934.281256mSECRJanjgir-Champa, Chhattisgarh
45SKTSakti (4)  12:46+2012:48+202m--2949.077237mSECRJanjgir-Champa, Chhattisgarh
46KHSKharsiaX  13:00+2213:02+212m--2964.473259mSECRNational Highway 200, Chhattisgarh
47RIGRaigarh (3)  13:30+2413:35+235m12998.493220mSECRRaigarh, Chhattisgarh
48BPHBelpaharX  14:08+3614:10+352m721049.441235mSECRBelpahar, Odisha
49BRJNBrajrajnagar  14:23+3414:25+342m--21058.416212mSECRBrajrajnagar, Odisha
50JSGJharsuguda Junction (5)X  15:10+1215:20+1510m--21070.084236mSERJharsuguda, Odisha
51BMBBamra (3)  15:46+1815:48+192m--21106.583259mSERBamra PH : 06642-229268, Odisha
52GPRaj Gangpur (3)  16:13+2216:15+222m221141.251237mSERRaj Ganpur, Odisha
53ROURourkela Junction (5)X  16:50+2017:05+2115m421171.077198mSERRourkela, Odisha
54BZRBisra  17:16+2517:16+270m--21185.181224mSERSundargarh, Odisha
55MOUManoharpurX  17:35+3017:37+302m--21210.859228mSERManoharpur, Jharkhand
56GOLGoilkera (2)  18:05+3318:07+342m--21238.353333mSERGoilkera, Jharkhand
57CKPChakradharpur (3)X  18:45+2318:55+2210m--21272.080235mSERChakradharpur (West Singhbhum), Jharkhand
58RKSNRajkharsawan Junction (3)X  19:10+2519:12+252m--21292.157189mSERSaraikela Kharswan District, Jharkhand
59SINISini Junction (3)  19:28+2319:30+242m--21307.329182mSERNational Highway 33, Jharkhand
60TATATatanagar Junction (5)  20:25+920:35+1210m421334.366164mSER91-657-2423026, Jharkhand
61GTSGhatsila (3)  21:08+1921:10+192m--21370.580103mSEREast Singhbhum, Jharkhand
62CKUChakulia (4)X  21:33+1621:35+172m--21401.046126mSERChakulia, Jharkhand
63HIJHijli (2)  23:03+2823:05+322m--21468.86848mSERdist - paschim medinipur, West Bengal
64JERJaleswar (4)X  00:02+2400:04+242m--31533.66513mSERJaleswar, Odisha
65BTSBasta (3)  00:22+1800:24+192m--31553.06516mSERBasta, Odisha
66BLSBalasore (4)X  00:50+1101:00+710m231581.08719mSERBalasore, Odisha
67SOROSoro  01:23+401:25+52m--31614.54414mSERSoro, Odisha
68BHCBhadrak (4)  02:05+1202:07+132m--31643.59723mECoRBhadrak, Odisha
69JJKRJajpur Keonjhar Road (4)X  02:34+2502:36+252m--31687.17336mECoRJajpur, Odisha
70CTCCuttack Junction (5)  03:35+2503:40+295m--31759.14828mECoRCuttack, Odisha
71BBSBhubaneswar (4)X  04:15+3204:20+335m431787.02340mECoRBhubaneshwar, Odisha
72KURKhurda Road Junction (7)  05:10+1305:15+165m--31805.95325mECoRKhordha, Odisha
73SILSakhi Gopal (3)X  05:46+2105:48+392m--31833.41410mECoRPuri, Odisha
74PURI•Puri (5)•  07:00+9-131849.8-12mECoRPuri, Odisha
Scroll to Top
Scroll to Bottom